Alan T — WDC9571 — position and weather

sailwx.info

Track history (hours):
 
Tides and Currents Weather Stations Pressure Air Temp Water Temp Dewpoint Dewpoint Depression Visibility Wind Speed Wind Dir Waves Ship Positions

Alan T

Owner: SO CAL SHIP SERVICES, INC, TERMINAL ISLAND, CA. More information available from US FCC via Universal Licensing System and Coast Guard Vessel Documentation Center.

Last reported at 2017-Sep-21 22:59 UTC. Time now 2017-Sep-21 23:15 UTC.
Position N 34°23' W 119°30'.

Length 30 m; draft 2.5 m.

Type: Ship (hazmat cat B). MMSI: 367104060.

Date/timePositionNaut miles runAvg speedWind from/ knotsBaromVisibWave heightAir tempDewpointWater temp
2017-Sep-21 22:59N 34°23' W 119°30'1 2.5
2017-Sep-21 22:30N 34°22' W 119°31'510.7
2017-Sep-21 21:59N 34°20' W 119°37'0 0.2
2017-Sep-21 21:30N 34°20' W 119°37'4 8.0
2017-Sep-21 20:59N 34°21' W 119°32'0 0.9
2017-Sep-21 20:30N 34°20' W 119°33'1 1.9
2017-Sep-21 20:00N 34°20' W 119°34'0 0.3
2017-Sep-21 19:30N 34°20' W 119°34'3 5.2
2017-Sep-21 19:00N 34°20' W 119°37'0 0.9
2017-Sep-21 18:30N 34°20' W 119°36'0 0.1
2017-Sep-21 17:59N 34°20' W 119°36'1 2.7
2017-Sep-21 17:30N 34°20' W 119°38'0 0.8
2017-Sep-21 17:00N 34°20' W 119°37'0 1.0
2017-Sep-21 16:30N 34°20' W 119°38'1 2.0
2017-Sep-21 16:00N 34°20' W 119°37'612.0
2017-Sep-21 15:30N 34°23' W 119°30'0 0.0
2017-Sep-21 14:59N 34°23' W 119°30'4 9.0
2017-Sep-21 14:30N 34°20' W 119°34'2 3.6
2017-Sep-21 14:00N 34°20' W 119°36'611.4
2017-Sep-21 13:31N 34°23' W 119°30'1 1.0
2017-Sep-21 12:56N 34°23' W 119°30'2 4.6
2017-Sep-21 12:29N 34°21' W 119°32'4 8.4
2017-Sep-21 12:00N 34°20' W 119°37'0 0.0
2017-Sep-21 11:30N 34°20' W 119°37'0 0.0
2017-Sep-21 11:01N 34°20' W 119°37'0 0.1
2017-Sep-21 10:30N 34°20' W 119°37'5 9.2
2017-Sep-21 09:59N 34°22' W 119°32'4 8.3
2017-Sep-21 09:30N 34°20' W 119°36'1 1.4
2017-Sep-21 09:00N 34°20' W 119°37'0 0.0
2017-Sep-21 08:27N 34°20' W 119°37'0 0.0
2017-Sep-21 08:00N 34°20' W 119°37'0 0.0
2017-Sep-21 07:30N 34°20' W 119°37'1 1.8
2017-Sep-21 07:00N 34°20' W 119°38'611.9
2017-Sep-21 06:30N 34°22' W 119°31'0 0.2
2017-Sep-21 06:00N 34°22' W 119°31'5 9.9
2017-Sep-21 05:30N 34°20' W 119°36'1 1.6
2017-Sep-21 05:00N 34°20' W 119°37'3 5.8
2017-Sep-21 04:30N 34°20' W 119°34'3 4.9
2017-Sep-21 03:59N 34°18' W 119°36'612.6
2017-Sep-21 03:30N 34°23' W 119°31'510.0
2017-Sep-21 03:00N 34°19' W 119°34'2 4.7
2017-Sep-21 02:30N 34°20' W 119°37'0 1.0
2017-Sep-21 02:00N 34°20' W 119°36'611.7
2017-Sep-21 01:30N 34°23' W 119°30'0 0.6
2017-Sep-21 00:57N 34°23' W 119°31'2 4.4
2017-Sep-21 00:29N 34°21' W 119°32'510.0
2017-Sep-21 00:00N 34°20' W 119°38'0 0.6
2017-Sep-20 23:30N 34°20' W 119°38'510.3
2017-Sep-20 23:00N 34°21' W 119°32'3 5.2
2017-Sep-20 22:30N 34°20' W 119°34'3 5.2
2017-Sep-20 21:55N 34°20' W 119°38'1 2.1
2017-Sep-20 21:30N 34°20' W 119°37'3 5.3
2017-Sep-20 21:00N 34°20' W 119°34'2 4.7
2017-Sep-20 20:30N 34°21' W 119°36'6 9.4
2017-Sep-20 19:54N 34°24' W 119°42'0 0.0
2017-Sep-20 19:30N 34°24' W 119°42'0 0.0
2017-Sep-20 18:58N 34°24' W 119°42'4 7.5
2017-Sep-20 18:30N 34°23' W 119°38'4 8.3
2017-Sep-20 18:00N 34°20' W 119°34'2 4.3
2017-Sep-20 17:30N 34°18' W 119°36'2 3.2
2017-Sep-20 17:00N 34°20' W 119°36'2 3.6
2017-Sep-20 16:30N 34°20' W 119°34'4 7.9
2017-Sep-20 15:59N 34°23' W 119°30'4 8.3
2017-Sep-20 15:29N 34°20' W 119°34'0 0.0
2017-Sep-20 15:00N 34°20' W 119°34'1 1.2
2017-Sep-20 13:57N 34°20' W 119°35'511.0
2017-Sep-20 13:29N 34°23' W 119°30'1 1.0
2017-Sep-20 13:00N 34°23' W 119°30'4 7.8
2017-Sep-20 12:29N 34°19' W 119°33'3 6.1
2017-Sep-20 12:00N 34°17' W 119°35'0 0.1
2017-Sep-20 11:30N 34°17' W 119°35'3 6.4
2017-Sep-20 11:00N 34°20' W 119°34'0 0.0
2017-Sep-20 10:31N 34°20' W 119°34'0 0.0
2017-Sep-20 10:00N 34°20' W 119°34'0 0.0
2017-Sep-20 09:30N 34°20' W 119°34'0 0.0
2017-Sep-20 09:01N 34°20' W 119°34'0 0.0
2017-Sep-20 08:30N 34°20' W 119°34'0 0.0
2017-Sep-20 08:00N 34°20' W 119°34'0 0.0
2017-Sep-20 07:30N 34°20' W 119°34'0 0.0
2017-Sep-20 06:59N 34°20' W 119°34'0 0.0
2017-Sep-20 06:30N 34°20' W 119°34'0 0.0
2017-Sep-20 06:00N 34°20' W 119°34'0 0.0
2017-Sep-20 05:31N 34°20' W 119°34'0 0.0
2017-Sep-20 05:00N 34°20' W 119°34'0 0.0
2017-Sep-20 04:26N 34°20' W 119°34'0 0.1
2017-Sep-20 04:00N 34°20' W 119°34'2 3.8
2017-Sep-20 03:28N 34°20' W 119°36'3 5.3
2017-Sep-20 02:59N 34°20' W 119°33'1 1.1
2017-Sep-20 02:29N 34°21' W 119°33'4 7.8
2017-Sep-20 02:01N 34°20' W 119°37'611.2
2017-Sep-20 01:29N 34°22' W 119°31'0 0.9
2017-Sep-20 01:00N 34°23' W 119°31'1 1.7
2017-Sep-20 00:30N 34°22' W 119°30'0 0.0
2017-Sep-20 00:00N 34°22' W 119°30'0 0.0
2017-Sep-19 23:25N 34°22' W 119°30'0 0.0
2017-Sep-19 23:00N 34°22' W 119°30'2 4.3
2017-Sep-19 22:30N 34°21' W 119°32'510.1
2017-Sep-19 22:00N 34°20' W 119°38'1 2.5
2017-Sep-19 21:29N 34°20' W 119°36'2 4.3
2017-Sep-19 21:00N 34°20' W 119°34'2 3.2
2017-Sep-19 20:30N 34°21' W 119°32'1 1.8
2017-Sep-19 20:00N 34°22' W 119°32'510.8
2017-Sep-19 19:30N 34°20' W 119°38'0 0.0
2017-Sep-19 19:00N 34°20' W 119°38'1 1.8
2017-Sep-19 18:30N 34°20' W 119°37'3 5.4
2017-Sep-19 18:00N 34°20' W 119°34'3 4.9
2017-Sep-19 17:30N 34°20' W 119°37'1 2.2
2017-Sep-19 17:00N 34°20' W 119°38'1 2.1
2017-Sep-19 16:30N 34°20' W 119°37'0 0.7
2017-Sep-19 16:00N 34°20' W 119°37'611.8
2017-Sep-19 15:28N 34°23' W 119°30'2 5.2
2017-Sep-19 15:00N 34°21' W 119°32'5 9.6
2017-Sep-19 14:30N 34°20' W 119°38'2 3.3
2017-Sep-19 14:00N 34°20' W 119°36'611.1
2017-Sep-19 13:30N 34°23' W 119°30'0 0.8
2017-Sep-19 13:01N 34°23' W 119°30'0 0.9
2017-Sep-19 12:30N 34°22' W 119°30'0 0.0
2017-Sep-19 11:59N 34°22' W 119°30'0 0.0
2017-Sep-19 11:30N 34°22' W 119°30'0 0.0
2017-Sep-19 11:00N 34°22' W 119°30'0 0.0
2017-Sep-19 10:30N 34°22' W 119°30'0 0.0
2017-Sep-19 10:00N 34°22' W 119°30'0 0.0
2017-Sep-19 09:23N 34°22' W 119°30'0 0.0
2017-Sep-19 09:00N 34°22' W 119°30'0 0.0
2017-Sep-19 08:30N 34°22' W 119°30'0 0.0
2017-Sep-19 08:00N 34°22' W 119°30'0 0.0
2017-Sep-19 07:30N 34°22' W 119°30'0 0.0
2017-Sep-19 07:00N 34°22' W 119°30'0 0.0
2017-Sep-19 06:30N 34°22' W 119°30'0 0.0
2017-Sep-19 05:59N 34°22' W 119°30'0 0.0
2017-Sep-19 05:29N 34°23' W 119°30'0 0.0
2017-Sep-19 04:59N 34°22' W 119°30'0 0.1
2017-Sep-19 04:30N 34°22' W 119°30'4 7.7
2017-Sep-19 04:00N 34°20' W 119°34'2 4.4
2017-Sep-19 03:30N 34°20' W 119°36'1 2.6
2017-Sep-19 03:00N 34°20' W 119°35'3 6.4
2017-Sep-19 02:29N 34°22' W 119°32'611.7
2017-Sep-19 02:00N 34°20' W 119°38'510.6
2017-Sep-19 01:30N 34°21' W 119°32'1 1.9
2017-Sep-19 01:00N 34°22' W 119°31'510.0
2017-Sep-19 00:29N 34°20' W 119°37'0 0.7
2017-Sep-19 00:00N 34°20' W 119°37'0 0.1
2017-Sep-18 23:30N 34°20' W 119°37'612.8
2017-Sep-18 23:00N 34°23' W 119°30'4 8.0
2017-Sep-18 22:30N 34°20' W 119°34'3 6.0
2017-Sep-18 22:00N 34°20' W 119°37'0 0.0
2017-Sep-18 21:29N 34°20' W 119°37'1 1.8
2017-Sep-18 21:00N 34°20' W 119°36'0 0.0
2017-Sep-18 20:30N 34°20' W 119°36'1 1.8
2017-Sep-18 20:01N 34°21' W 119°37'510.5
2017-Sep-18 19:29N 34°24' W 119°42'0 0.0
2017-Sep-18 19:00N 34°24' W 119°42'0 0.4
2017-Sep-18 18:30N 34°24' W 119°41'611.3
2017-Sep-18 18:00N 34°20' W 119°37'0 0.9
2017-Sep-18 17:30N 34°20' W 119°37'2 4.8
2017-Sep-18 16:59N 34°20' W 119°34'2 4.3
2017-Sep-18 16:31N 34°20' W 119°36'1 1.1
2017-Sep-18 16:00N 34°20' W 119°37'612.3
2017-Sep-18 15:30N 34°23' W 119°30'0 0.1
2017-Sep-18 14:58N 34°23' W 119°30'4 8.6
2017-Sep-18 14:30N 34°20' W 119°34'2 4.2
2017-Sep-18 14:00N 34°20' W 119°36'611.3
2017-Sep-18 13:30N 34°23' W 119°30'0 0.7
2017-Sep-18 13:00N 34°23' W 119°31'0 0.8
2017-Sep-18 12:30N 34°22' W 119°31'3 6.6
2017-Sep-18 12:00N 34°20' W 119°34'0 0.0
2017-Sep-18 11:28N 34°20' W 119°34'0 0.0
2017-Sep-18 11:00N 34°20' W 119°34'0 0.0
2017-Sep-18 10:30N 34°20' W 119°34'0 0.0
2017-Sep-18 10:00N 34°20' W 119°34'0 0.0
2017-Sep-18 09:30N 34°20' W 119°34'0 0.0
2017-Sep-18 09:00N 34°20' W 119°34'0 0.0
2017-Sep-18 08:30N 34°20' W 119°34'0 0.0
2017-Sep-18 08:00N 34°20' W 119°34'0 0.0
2017-Sep-18 07:30N 34°20' W 119°34'0 0.0
2017-Sep-18 07:00N 34°20' W 119°34'0 0.0
2017-Sep-18 06:29N 34°20' W 119°34'0 0.0
2017-Sep-18 05:59N 34°20' W 119°34'0 0.0
2017-Sep-18 05:30N 34°20' W 119°34'0 0.0
2017-Sep-18 05:00N 34°20' W 119°34'0 0.0
2017-Sep-18 04:30N 34°20' W 119°34'0 0.0
2017-Sep-18 04:00N 34°20' W 119°34'0 0.0
2017-Sep-18 03:29N 34°20' W 119°34'0 0.0
2017-Sep-18 03:00N 34°20' W 119°34'0 0.0
2017-Sep-18 02:30N 34°20' W 119°34'2 4.7
2017-Sep-18 02:00N 34°20' W 119°37'5 9.2
2017-Sep-18 01:30N 34°22' W 119°31'1 2.8
2017-Sep-18 01:00N 34°23' W 119°31'1 1.3
2017-Sep-18 00:30N 34°22' W 119°30'0 0.0
2017-Sep-18 00:00N 34°22' W 119°30'0 0.0
2017-Sep-17 23:30N 34°23' W 119°30'0 0.0
2017-Sep-17 22:58N 34°22' W 119°30'510.3
2017-Sep-17 22:30N 34°20' W 119°35'1 2.2
2017-Sep-17 21:58N 34°20' W 119°36'0 0.0
2017-Sep-17 21:30N 34°20' W 119°36'2 3.4
2017-Sep-17 21:00N 34°20' W 119°34'0 0.7
2017-Sep-17 20:28N 34°20' W 119°34'0 0.0
2017-Sep-17 19:57N 34°20' W 119°34'4 8.3
2017-Sep-17 19:30N 34°23' W 119°31'0 0.2
2017-Sep-17 18:56N 34°23' W 119°30'0 0.7
2017-Sep-17 18:30N 34°23' W 119°31'510.2
2017-Sep-17 18:00N 34°20' W 119°36'2 3.0
2017-Sep-17 17:28N 34°20' W 119°38'0 1.0
2017-Sep-17 17:00N 34°20' W 119°37'0 0.5
2017-Sep-17 16:30N 34°20' W 119°38'5 8.8
2017-Sep-17 15:59N 34°21' W 119°32'2 4.7
2017-Sep-17 15:28N 34°22' W 119°30'2 4.8
2017-Sep-17 14:59N 34°20' W 119°29'1 2.5
2017-Sep-17 14:30N 34°20' W 119°31'4 8.0
2017-Sep-17 14:00N 34°20' W 119°36'510.3
2017-Sep-17 13:30N 34°23' W 119°30'0 0.6
2017-Sep-17 13:00N 34°23' W 119°31'1 1.5
2017-Sep-17 12:30N 34°22' W 119°30'0 0.0
2017-Sep-17 12:00N 34°22' W 119°30'0 0.0
2017-Sep-17 11:29N 34°22' W 119°30'0 0.0
2017-Sep-17 10:59N 34°22' W 119°30'0 0.0
2017-Sep-17 10:30N 34°22' W 119°30'0 0.0
2017-Sep-17 10:00N 34°22' W 119°30'0 0.0
2017-Sep-17 09:28N 34°22' W 119°30'0 0.0
2017-Sep-17 08:58N 34°22' W 119°30'0 0.0
2017-Sep-17 08:26N 34°22' W 119°30'0 0.0
2017-Sep-17 07:58N 34°22' W 119°30'0 0.0
2017-Sep-17 07:30N 34°22' W 119°30'0 0.0
2017-Sep-17 06:59N 34°22' W 119°30'0 0.0
2017-Sep-17 06:29N 34°22' W 119°30'0 0.0
2017-Sep-17 06:00N 34°22' W 119°30'0 0.0
2017-Sep-17 05:30N 34°22' W 119°30'0 0.0
2017-Sep-17 04:59N 34°22' W 119°30'0 0.0
2017-Sep-17 04:30N 34°22' W 119°30'0 0.0
2017-Sep-17 04:00N 34°22' W 119°30'0 0.0
2017-Sep-17 03:30N 34°22' W 119°30'0 0.0
2017-Sep-17 02:58N 34°22' W 119°30'0 0.0
2017-Sep-17 02:28N 34°22' W 119°30'0 0.0
2017-Sep-17 02:00N 34°22' W 119°30'0 0.0
2017-Sep-17 01:28N 34°22' W 119°30'0 0.0
2017-Sep-17 01:00N 34°22' W 119°30'3 7.1
2017-Sep-17 00:31N 34°20' W 119°33'2 4.4
2017-Sep-17 00:01N 34°20' W 119°36'2 3.3
2017-Sep-16 23:30N 34°20' W 119°38'0 0.6
2017-Sep-16 23:01N 34°20' W 119°38'4 8.0
2017-Sep-16 22:30N 34°24' W 119°39'2 4.1
2017-Sep-16 21:59N 34°24' W 119°42'0 0.0
2017-Sep-16 21:30N 34°24' W 119°42'0 0.0
2017-Sep-16 21:00N 34°24' W 119°42'0 0.0
2017-Sep-16 20:28N 34°24' W 119°42'0 0.0
2017-Sep-16 19:59N 34°24' W 119°42'0 0.0
2017-Sep-16 19:30N 34°24' W 119°42'2 4.4
2017-Sep-16 19:00N 34°24' W 119°39'714.1
2017-Sep-16 18:30N 34°23' W 119°30'5 9.5
2017-Sep-16 18:00N 34°20' W 119°35'2 3.2
2017-Sep-16 17:30N 34°20' W 119°37'1 1.3
2017-Sep-16 17:00N 34°20' W 119°36'1 2.2
2017-Sep-16 16:30N 34°20' W 119°38'4 7.8
2017-Sep-16 15:58N 34°21' W 119°33'2 4.1
2017-Sep-16 15:30N 34°22' W 119°31'611.5
2017-Sep-16 15:00N 34°20' W 119°38'1 1.2
2017-Sep-16 14:31N 34°20' W 119°37'0 0.1
2017-Sep-16 14:00N 34°20' W 119°37'610.5
2017-Sep-16 13:27N 34°23' W 119°31'0 0.2
2017-Sep-16 13:00N 34°23' W 119°31'1 1.0
2017-Sep-16 12:28N 34°22' W 119°30'0 0.0
2017-Sep-16 11:59N 34°22' W 119°30'0 0.0
2017-Sep-16 11:30N 34°22' W 119°30'0 0.0
2017-Sep-16 10:57N 34°22' W 119°30'0 0.0
2017-Sep-16 10:29N 34°22' W 119°30'0 0.0
2017-Sep-16 10:00N 34°22' W 119°30'0 0.0
2017-Sep-16 09:30N 34°22' W 119°30'0 0.0
2017-Sep-16 08:59N 34°22' W 119°30'0 0.0
2017-Sep-16 08:29N 34°22' W 119°30'0 0.0
2017-Sep-16 07:59N 34°22' W 119°30'0 0.0
2017-Sep-16 07:26N 34°22' W 119°30'0 0.0
2017-Sep-16 07:00N 34°22' W 119°30'0 0.0
2017-Sep-16 06:30N 34°22' W 119°30'0 0.0
2017-Sep-16 06:00N 34°22' W 119°30'0 0.0
2017-Sep-16 05:30N 34°22' W 119°30'0 0.0
2017-Sep-16 04:58N 34°22' W 119°30'0 0.0
2017-Sep-16 04:29N 34°22' W 119°30'0 0.0
2017-Sep-16 03:55N 34°22' W 119°30'0 0.0
2017-Sep-16 03:30N 34°22' W 119°30'0 0.0
2017-Sep-16 03:00N 34°22' W 119°30'0 0.0
2017-Sep-16 02:30N 34°22' W 119°30'0 0.0
2017-Sep-16 01:59N 34°22' W 119°30'0 0.0
2017-Sep-16 01:30N 34°22' W 119°30'1 1.4
2017-Sep-16 01:00N 34°23' W 119°30'713.9
2017-Sep-16 00:30N 34°20' W 119°38'3 7.0
2017-Sep-16 00:01N 34°20' W 119°34'2 4.2
2017-Sep-15 23:30N 34°21' W 119°32'2 4.0
2017-Sep-15 23:00N 34°23' W 119°30'4 7.8
2017-Sep-15 22:30N 34°20' W 119°34'2 4.3
2017-Sep-15 22:00N 34°19' W 119°36'2 3.8
2017-Sep-15 21:30N 34°17' W 119°35'1 1.1
2017-Sep-15 21:00N 34°18' W 119°35'612.2
2017-Sep-15 20:29N 34°23' W 119°30'4 8.4
2017-Sep-15 20:00N 34°20' W 119°34'3 7.0
2017-Sep-15 19:30N 34°20' W 119°38'1 2.8
2017-Sep-15 19:00N 34°20' W 119°36'0 0.0
2017-Sep-15 18:30N 34°20' W 119°36'1 2.8
2017-Sep-15 18:00N 34°20' W 119°38'1 1.1
2017-Sep-15 17:30N 34°20' W 119°37'0 0.5
2017-Sep-15 17:00N 34°20' W 119°38'1 1.1
2017-Sep-15 16:29N 34°20' W 119°37'510.3
2017-Sep-15 16:00N 34°22' W 119°31'1 2.3
2017-Sep-15 15:30N 34°23' W 119°30'0 0.0
2017-Sep-15 15:00N 34°23' W 119°30'612.3
2017-Sep-15 14:30N 34°18' W 119°35'2 4.2
2017-Sep-15 14:00N 34°20' W 119°36'611.3
2017-Sep-15 13:30N 34°23' W 119°30'0 0.6
2017-Sep-15 12:59N 34°23' W 119°31'1 1.0
2017-Sep-15 12:27N 34°22' W 119°30'0 0.0
2017-Sep-15 12:00N 34°22' W 119°30'0 0.0
2017-Sep-15 11:30N 34°22' W 119°30'0 0.0
2017-Sep-15 11:00N 34°22' W 119°30'0 0.0
2017-Sep-15 10:29N 34°22' W 119°30'0 0.0
2017-Sep-15 10:00N 34°22' W 119°30'0 0.0
2017-Sep-15 09:30N 34°22' W 119°30'0 0.0
2017-Sep-15 09:00N 34°22' W 119°30'0 0.0
2017-Sep-15 08:29N 34°22' W 119°30'0 0.0
2017-Sep-15 08:00N 34°22' W 119°30'0 0.0
2017-Sep-15 07:27N 34°22' W 119°30'0 0.0
2017-Sep-15 06:59N 34°22' W 119°30'0 0.0
2017-Sep-15 06:28N 34°22' W 119°30'0 0.0
2017-Sep-15 05:59N 34°22' W 119°30'0 0.0
2017-Sep-15 05:30N 34°22' W 119°30'0 0.0
2017-Sep-15 05:00N 34°22' W 119°30'0 0.0
2017-Sep-15 04:26N 34°22' W 119°30'0 0.0
2017-Sep-15 04:00N 34°22' W 119°30'0 0.0
2017-Sep-15 03:29N 34°22' W 119°30'0 0.0
2017-Sep-15 02:58N 34°22' W 119°30'2 3.4
2017-Sep-15 02:30N 34°21' W 119°31'510.5
2017-Sep-15 02:00N 34°20' W 119°37'612.0
2017-Sep-15 01:30N 34°23' W 119°31'1 1.0
2017-Sep-15 01:00N 34°23' W 119°31'511.1
2017-Sep-15 00:30N 34°20' W 119°36'1 1.8
2017-Sep-15 00:00N 34°20' W 119°37'612.8
2017-Sep-14 23:30N 34°23' W 119°30'0 0.0
2017-Sep-14 23:00N 34°23' W 119°30'4 8.3
2017-Sep-14 22:31N 34°20' W 119°34'2 3.4
2017-Sep-14 22:01N 34°20' W 119°36'2 3.2
2017-Sep-14 21:29N 34°20' W 119°34'0 0.2
2017-Sep-14 20:59N 34°20' W 119°34'0 0.0
2017-Sep-14 20:30N 34°20' W 119°34'0 0.0
2017-Sep-14 19:59N 34°20' W 119°34'0 0.0
2017-Sep-14 19:30N 34°20' W 119°34'1 2.0
2017-Sep-14 19:00N 34°20' W 119°35'3 5.7
2017-Sep-14 18:30N 34°17' W 119°35'3 6.2
2017-Sep-14 18:00N 34°20' W 119°37'0 1.0
2017-Sep-14 17:30N 34°20' W 119°37'0 0.5
2017-Sep-14 17:00N 34°20' W 119°37'2 4.8
2017-Sep-14 16:30N 34°20' W 119°34'2 4.2
2017-Sep-14 16:00N 34°21' W 119°32'1 2.6
2017-Sep-14 15:30N 34°22' W 119°31'1 2.1
2017-Sep-14 14:59N 34°23' W 119°30'715.0
2017-Sep-14 14:30N 34°17' W 119°35'3 5.8
2017-Sep-14 14:01N 34°20' W 119°36'611.0
2017-Sep-14 13:29N 34°23' W 119°30'0 1.0
2017-Sep-14 13:00N 34°23' W 119°31'1 1.2
2017-Sep-14 12:30N 34°22' W 119°30'0 0.0
2017-Sep-14 11:59N 34°22' W 119°30'0 0.0
2017-Sep-14 11:27N 34°22' W 119°30'0 0.0
2017-Sep-14 11:00N 34°22' W 119°30'0 0.0
2017-Sep-14 10:29N 34°22' W 119°30'0 0.0
2017-Sep-14 09:57N 34°22' W 119°30'0 0.0
2017-Sep-14 09:29N 34°22' W 119°30'0 0.0
2017-Sep-14 08:58N 34°22' W 119°30'0 0.0
2017-Sep-14 08:29N 34°22' W 119°30'0 0.0
2017-Sep-14 07:59N 34°22' W 119°30'0 0.0
2017-Sep-14 07:30N 34°22' W 119°30'0 0.0
2017-Sep-14 06:58N 34°22' W 119°30'0 0.0
2017-Sep-14 06:30N 34°22' W 119°30'0 0.0
2017-Sep-14 05:59N 34°22' W 119°30'0 0.0
2017-Sep-14 05:27N 34°22' W 119°30'0 0.0
2017-Sep-14 05:00N 34°22' W 119°30'0 0.0
2017-Sep-14 04:29N 34°22' W 119°30'0 0.0
2017-Sep-14 03:58N 34°22' W 119°30'511.6
2017-Sep-14 03:30N 34°20' W 119°36'510.5
2017-Sep-14 03:00N 34°23' W 119°30'1 1.1
2017-Sep-14 02:31N 34°23' W 119°31'611.9
2017-Sep-14 02:00N 34°20' W 119°37'611.9
2017-Sep-14 01:29N 34°23' W 119°31'0 0.9
2017-Sep-14 00:59N 34°23' W 119°30'0 0.5
2017-Sep-14 00:30N 34°22' W 119°30'0 0.0
2017-Sep-13 23:59N 34°22' W 119°30'0 0.0
2017-Sep-13 23:29N 34°22' W 119°30'0 0.0
2017-Sep-13 22:59N 34°22' W 119°30'4 8.2
2017-Sep-13 22:30N 34°20' W 119°34'2 4.1
2017-Sep-13 22:00N 34°20' W 119°36'0 0.2
2017-Sep-13 21:30N 34°20' W 119°36'0 0.5
2017-Sep-13 21:00N 34°20' W 119°37'1 2.8
2017-Sep-13 20:30N 34°20' W 119°35'611.9
2017-Sep-13 20:00N 34°24' W 119°40'1 2.2
2017-Sep-13 19:29N 34°24' W 119°42'0 0.0
2017-Sep-13 19:00N 34°24' W 119°42'0 0.0
2017-Sep-13 18:30N 34°24' W 119°42'511.0
2017-Sep-13 18:01N 34°21' W 119°36'2 4.5
2017-Sep-13 17:30N 34°20' W 119°34'2 3.9
2017-Sep-13 17:00N 34°20' W 119°36'1 2.6
2017-Sep-13 16:30N 34°20' W 119°38'0 0.3
2017-Sep-13 16:00N 34°20' W 119°38'5 9.3
2017-Sep-13 15:29N 34°21' W 119°32'2 4.6
2017-Sep-13 14:58N 34°23' W 119°31'2 4.3
2017-Sep-13 14:29N 34°21' W 119°32'4 8.4
2017-Sep-13 14:00N 34°20' W 119°37'611.8
2017-Sep-13 13:29N 34°23' W 119°30'0 0.0
2017-Sep-13 12:59N 34°23' W 119°30'1 1.5
2017-Sep-13 12:30N 34°22' W 119°30'0 0.0
2017-Sep-13 12:00N 34°22' W 119°30'0 0.0
2017-Sep-13 11:30N 34°22' W 119°30'0 0.0
2017-Sep-13 10:58N 34°22' W 119°30'0 0.0
2017-Sep-13 10:27N 34°22' W 119°30'0 0.0
2017-Sep-13 10:00N 34°22' W 119°30'0 0.0
2017-Sep-13 09:29N 34°22' W 119°30'0 0.0
2017-Sep-13 09:00N 34°22' W 119°30'0 0.0
2017-Sep-13 08:30N 34°22' W 119°30'0 0.0
2017-Sep-13 08:00N 34°22' W 119°30'0 0.0
2017-Sep-13 07:30N 34°22' W 119°30'0 0.0
2017-Sep-13 06:57N 34°22' W 119°30'0 0.0
2017-Sep-13 06:29N 34°22' W 119°30'0 0.0
2017-Sep-13 06:00N 34°22' W 119°30'0 0.0
2017-Sep-13 05:29N 34°22' W 119°30'0 0.0
2017-Sep-13 04:58N 34°22' W 119°30'0 0.0
2017-Sep-13 04:30N 34°22' W 119°30'0 0.0
2017-Sep-13 04:00N 34°22' W 119°30'0 0.0
2017-Sep-13 03:28N 34°22' W 119°30'0 0.0
2017-Sep-13 02:58N 34°22' W 119°30'0 0.0
2017-Sep-13 02:30N 34°22' W 119°30'0 0.0
2017-Sep-13 01:58N 34°22' W 119°30'4 8.4
2017-Sep-13 01:30N 34°20' W 119°34'4 7.4
2017-Sep-13 01:00N 34°23' W 119°31'0 0.8
2017-Sep-13 00:28N 34°23' W 119°30'0 0.0
2017-Sep-13 00:00N 34°23' W 119°30'0 0.0
2017-Sep-12 23:30N 34°23' W 119°30'1 1.1
2017-Sep-12 23:00N 34°23' W 119°30'4 8.4
2017-Sep-12 22:31N 34°20' W 119°34'2 4.0
2017-Sep-12 22:00N 34°20' W 119°36'1 1.8
2017-Sep-12 21:30N 34°20' W 119°37'0 0.3
2017-Sep-12 21:00N 34°20' W 119°37'1 1.9
2017-Sep-12 20:30N 34°20' W 119°36'510.4
2017-Sep-12 20:00N 34°22' W 119°31'510.0
2017-Sep-12 19:30N 34°18' W 119°34'2 5.0
2017-Sep-12 19:00N 34°19' W 119°37'1 1.5
2017-Sep-12 18:30N 34°20' W 119°37'0 0.8
2017-Sep-12 18:01N 34°20' W 119°37'0 0.7
2017-Sep-12 17:31N 34°20' W 119°37'1 1.7
2017-Sep-12 17:00N 34°20' W 119°36'0 0.0
2017-Sep-12 16:31N 34°20' W 119°36'3 5.0
2017-Sep-12 16:00N 34°20' W 119°33'4 7.0
2017-Sep-12 15:29N 34°23' W 119°30'0 0.0
2017-Sep-12 14:59N 34°23' W 119°30'4 7.8
2017-Sep-12 14:30N 34°20' W 119°33'3 5.6
2017-Sep-12 14:00N 34°20' W 119°37'611.8
2017-Sep-12 13:30N 34°23' W 119°30'0 0.4
2017-Sep-12 13:00N 34°23' W 119°31'1 1.4
2017-Sep-12 12:29N 34°22' W 119°30'0 0.0
2017-Sep-12 12:00N 34°22' W 119°30'0 0.0
2017-Sep-12 11:29N 34°22' W 119°30'0 0.0
2017-Sep-12 10:56N 34°22' W 119°30'0 0.0
2017-Sep-12 10:29N 34°22' W 119°30'0 0.0
2017-Sep-12 09:59N 34°22' W 119°30'0 0.0
2017-Sep-12 09:29N 34°22' W 119°30'0 0.0
2017-Sep-12 08:58N 34°22' W 119°30'0 0.0
2017-Sep-12 08:29N 34°22' W 119°30'0 0.0
2017-Sep-12 07:58N 34°22' W 119°30'0 0.0
2017-Sep-12 07:30N 34°22' W 119°30'0 0.0
2017-Sep-12 06:59N 34°22' W 119°30'0 0.0
2017-Sep-12 06:26N 34°22' W 119°30'0 0.0
2017-Sep-12 06:00N 34°22' W 119°30'0 0.0
2017-Sep-12 05:30N 34°22' W 119°30'0 0.0
2017-Sep-12 05:00N 34°22' W 119°30'0 0.0
2017-Sep-12 04:30N 34°22' W 119°30'0 0.0
2017-Sep-12 04:00N 34°22' W 119°30'0 0.0
2017-Sep-12 03:30N 34°22' W 119°30'0 0.0
2017-Sep-12 03:00N 34°22' W 119°30'0 0.0
2017-Sep-12 02:30N 34°22' W 119°30'0 0.0
2017-Sep-12 02:00N 34°22' W 119°30'2 3.3
2017-Sep-12 01:30N 34°21' W 119°32'1 1.8
2017-Sep-12 01:00N 34°21' W 119°32'2 5.1
2017-Sep-12 00:30N 34°23' W 119°30'0 0.0
2017-Sep-11 23:59N 34°23' W 119°30'0 0.0
2017-Sep-11 23:27N 34°23' W 119°30'0 0.0
2017-Sep-11 23:00N 34°23' W 119°30'  
Track history (hours):
 
Tides and Currents Weather Stations Pressure Air Temp Water Temp Dewpoint Dewpoint Depression Visibility Wind Speed Wind Dir Waves Ship Positions

Alan T

Owner: SO CAL SHIP SERVICES, INC, TERMINAL ISLAND, CA. More information available from US FCC via Universal Licensing System and Coast Guard Vessel Documentation Center.

Last reported at 2017-Sep-21 22:59 UTC. Time now 2017-Sep-21 23:15 UTC.
Position N 34°23' W 119°30'.

Length 30 m; draft 2.5 m.

Type: Ship (hazmat cat B). MMSI: 367104060.

Date/timePositionNaut miles runAvg speedWind from/ knotsBaromVisibWave heightAir tempDewpointWater temp
2017-Sep-21 22:59N 34°23' W 119°30'1 2.5
2017-Sep-21 22:30N 34°22' W 119°31'510.7
2017-Sep-21 21:59N 34°20' W 119°37'0 0.2
2017-Sep-21 21:30N 34°20' W 119°37'4 8.0
2017-Sep-21 20:59N 34°21' W 119°32'0 0.9
2017-Sep-21 20:30N 34°20' W 119°33'1 1.9
2017-Sep-21 20:00N 34°20' W 119°34'0 0.3
2017-Sep-21 19:30N 34°20' W 119°34'3 5.2
2017-Sep-21 19:00N 34°20' W 119°37'0 0.9
2017-Sep-21 18:30N 34°20' W 119°36'0 0.1
2017-Sep-21 17:59N 34°20' W 119°36'1 2.7
2017-Sep-21 17:30N 34°20' W 119°38'0 0.8
2017-Sep-21 17:00N 34°20' W 119°37'0 1.0
2017-Sep-21 16:30N 34°20' W 119°38'1 2.0
2017-Sep-21 16:00N 34°20' W 119°37'612.0
2017-Sep-21 15:30N 34°23' W 119°30'0 0.0
2017-Sep-21 14:59N 34°23' W 119°30'4 9.0
2017-Sep-21 14:30N 34°20' W 119°34'2 3.6
2017-Sep-21 14:00N 34°20' W 119°36'611.4
2017-Sep-21 13:31N 34°23' W 119°30'1 1.0
2017-Sep-21 12:56N 34°23' W 119°30'2 4.6
2017-Sep-21 12:29N 34°21' W 119°32'4 8.4
2017-Sep-21 12:00N 34°20' W 119°37'0 0.0
2017-Sep-21 11:30N 34°20' W 119°37'0 0.0
2017-Sep-21 11:01N 34°20' W 119°37'0 0.1
2017-Sep-21 10:30N 34°20' W 119°37'5 9.2
2017-Sep-21 09:59N 34°22' W 119°32'4 8.3
2017-Sep-21 09:30N 34°20' W 119°36'1 1.4
2017-Sep-21 09:00N 34°20' W 119°37'0 0.0
2017-Sep-21 08:27N 34°20' W 119°37'0 0.0
2017-Sep-21 08:00N 34°20' W 119°37'0 0.0
2017-Sep-21 07:30N 34°20' W 119°37'1 1.8
2017-Sep-21 07:00N 34°20' W 119°38'611.9
2017-Sep-21 06:30N 34°22' W 119°31'0 0.2
2017-Sep-21 06:00N 34°22' W 119°31'5 9.9
2017-Sep-21 05:30N 34°20' W 119°36'1 1.6
2017-Sep-21 05:00N 34°20' W 119°37'3 5.8
2017-Sep-21 04:30N 34°20' W 119°34'3 4.9
2017-Sep-21 03:59N 34°18' W 119°36'612.6
2017-Sep-21 03:30N 34°23' W 119°31'510.0
2017-Sep-21 03:00N 34°19' W 119°34'2 4.7
2017-Sep-21 02:30N 34°20' W 119°37'0 1.0
2017-Sep-21 02:00N 34°20' W 119°36'611.7
2017-Sep-21 01:30N 34°23' W 119°30'0 0.6
2017-Sep-21 00:57N 34°23' W 119°31'2 4.4
2017-Sep-21 00:29N 34°21' W 119°32'510.0
2017-Sep-21 00:00N 34°20' W 119°38'0 0.6
2017-Sep-20 23:30N 34°20' W 119°38'510.3
2017-Sep-20 23:00N 34°21' W 119°32'3 5.2
2017-Sep-20 22:30N 34°20' W 119°34'3 5.2
2017-Sep-20 21:55N 34°20' W 119°38'1 2.1
2017-Sep-20 21:30N 34°20' W 119°37'3 5.3
2017-Sep-20 21:00N 34°20' W 119°34'2 4.7
2017-Sep-20 20:30N 34°21' W 119°36'6 9.4
2017-Sep-20 19:54N 34°24' W 119°42'0 0.0
2017-Sep-20 19:30N 34°24' W 119°42'0 0.0
2017-Sep-20 18:58N 34°24' W 119°42'4 7.5
2017-Sep-20 18:30N 34°23' W 119°38'4 8.3
2017-Sep-20 18:00N 34°20' W 119°34'2 4.3
2017-Sep-20 17:30N 34°18' W 119°36'2 3.2
2017-Sep-20 17:00N 34°20' W 119°36'2 3.6
2017-Sep-20 16:30N 34°20' W 119°34'4 7.9
2017-Sep-20 15:59N 34°23' W 119°30'4 8.3
2017-Sep-20 15:29N 34°20' W 119°34'0 0.0
2017-Sep-20 15:00N 34°20' W 119°34'1 1.2
2017-Sep-20 13:57N 34°20' W 119°35'511.0
2017-Sep-20 13:29N 34°23' W 119°30'1 1.0
2017-Sep-20 13:00N 34°23' W 119°30'4 7.8
2017-Sep-20 12:29N 34°19' W 119°33'3 6.1
2017-Sep-20 12:00N 34°17' W 119°35'0 0.1
2017-Sep-20 11:30N 34°17' W 119°35'3 6.4
2017-Sep-20 11:00N 34°20' W 119°34'0 0.0
2017-Sep-20 10:31N 34°20' W 119°34'0 0.0
2017-Sep-20 10:00N 34°20' W 119°34'0 0.0
2017-Sep-20 09:30N 34°20' W 119°34'0 0.0
2017-Sep-20 09:01N 34°20' W 119°34'0 0.0
2017-Sep-20 08:30N 34°20' W 119°34'0 0.0
2017-Sep-20 08:00N 34°20' W 119°34'0 0.0
2017-Sep-20 07:30N 34°20' W 119°34'0 0.0
2017-Sep-20 06:59N 34°20' W 119°34'0 0.0
2017-Sep-20 06:30N 34°20' W 119°34'0 0.0
2017-Sep-20 06:00N 34°20' W 119°34'0 0.0
2017-Sep-20 05:31N 34°20' W 119°34'0 0.0
2017-Sep-20 05:00N 34°20' W 119°34'0 0.0
2017-Sep-20 04:26N 34°20' W 119°34'0 0.1
2017-Sep-20 04:00N 34°20' W 119°34'2 3.8
2017-Sep-20 03:28N 34°20' W 119°36'3 5.3
2017-Sep-20 02:59N 34°20' W 119°33'1 1.1
2017-Sep-20 02:29N 34°21' W 119°33'4 7.8
2017-Sep-20 02:01N 34°20' W 119°37'611.2
2017-Sep-20 01:29N 34°22' W 119°31'0 0.9
2017-Sep-20 01:00N 34°23' W 119°31'1 1.7
2017-Sep-20 00:30N 34°22' W 119°30'0 0.0
2017-Sep-20 00:00N 34°22' W 119°30'0 0.0
2017-Sep-19 23:25N 34°22' W 119°30'0 0.0
2017-Sep-19 23:00N 34°22' W 119°30'2 4.3
2017-Sep-19 22:30N 34°21' W 119°32'510.1
2017-Sep-19 22:00N 34°20' W 119°38'1 2.5
2017-Sep-19 21:29N 34°20' W 119°36'2 4.3
2017-Sep-19 21:00N 34°20' W 119°34'2 3.2
2017-Sep-19 20:30N 34°21' W 119°32'1 1.8
2017-Sep-19 20:00N 34°22' W 119°32'510.8
2017-Sep-19 19:30N 34°20' W 119°38'0 0.0
2017-Sep-19 19:00N 34°20' W 119°38'1 1.8
2017-Sep-19 18:30N 34°20' W 119°37'3 5.4
2017-Sep-19 18:00N 34°20' W 119°34'3 4.9
2017-Sep-19 17:30N 34°20' W 119°37'1 2.2
2017-Sep-19 17:00N 34°20' W 119°38'1 2.1
2017-Sep-19 16:30N 34°20' W 119°37'0 0.7
2017-Sep-19 16:00N 34°20' W 119°37'611.8
2017-Sep-19 15:28N 34°23' W 119°30'2 5.2
2017-Sep-19 15:00N 34°21' W 119°32'5 9.6
2017-Sep-19 14:30N 34°20' W 119°38'2 3.3
2017-Sep-19 14:00N 34°20' W 119°36'611.1
2017-Sep-19 13:30N 34°23' W 119°30'0 0.8
2017-Sep-19 13:01N 34°23' W 119°30'0 0.9
2017-Sep-19 12:30N 34°22' W 119°30'0 0.0
2017-Sep-19 11:59N 34°22' W 119°30'0 0.0
2017-Sep-19 11:30N 34°22' W 119°30'0 0.0
2017-Sep-19 11:00N 34°22' W 119°30'0 0.0
2017-Sep-19 10:30N 34°22' W 119°30'0 0.0
2017-Sep-19 10:00N 34°22' W 119°30'0 0.0
2017-Sep-19 09:23N 34°22' W 119°30'0 0.0
2017-Sep-19 09:00N 34°22' W 119°30'0 0.0
2017-Sep-19 08:30N 34°22' W 119°30'0 0.0
2017-Sep-19 08:00N 34°22' W 119°30'0 0.0
2017-Sep-19 07:30N 34°22' W 119°30'0 0.0
2017-Sep-19 07:00N 34°22' W 119°30'0 0.0
2017-Sep-19 06:30N 34°22' W 119°30'0 0.0
2017-Sep-19 05:59N 34°22' W 119°30'0 0.0
2017-Sep-19 05:29N 34°23' W 119°30'0 0.0
2017-Sep-19 04:59N 34°22' W 119°30'0 0.1
2017-Sep-19 04:30N 34°22' W 119°30'4 7.7
2017-Sep-19 04:00N 34°20' W 119°34'2 4.4
2017-Sep-19 03:30N 34°20' W 119°36'1 2.6
2017-Sep-19 03:00N 34°20' W 119°35'3 6.4
2017-Sep-19 02:29N 34°22' W 119°32'611.7
2017-Sep-19 02:00N 34°20' W 119°38'510.6
2017-Sep-19 01:30N 34°21' W 119°32'1 1.9
2017-Sep-19 01:00N 34°22' W 119°31'510.0
2017-Sep-19 00:29N 34°20' W 119°37'0 0.7
2017-Sep-19 00:00N 34°20' W 119°37'0 0.1
2017-Sep-18 23:30N 34°20' W 119°37'612.8
2017-Sep-18 23:00N 34°23' W 119°30'4 8.0
2017-Sep-18 22:30N 34°20' W 119°34'3 6.0
2017-Sep-18 22:00N 34°20' W 119°37'0 0.0
2017-Sep-18 21:29N 34°20' W 119°37'1 1.8
2017-Sep-18 21:00N 34°20' W 119°36'0 0.0
2017-Sep-18 20:30N 34°20' W 119°36'1 1.8
2017-Sep-18 20:01N 34°21' W 119°37'510.5
2017-Sep-18 19:29N 34°24' W 119°42'0 0.0
2017-Sep-18 19:00N 34°24' W 119°42'0 0.4
2017-Sep-18 18:30N 34°24' W 119°41'611.3
2017-Sep-18 18:00N 34°20' W 119°37'0 0.9
2017-Sep-18 17:30N 34°20' W 119°37'2 4.8
2017-Sep-18 16:59N 34°20' W 119°34'2 4.3
2017-Sep-18 16:31N 34°20' W 119°36'1 1.1
2017-Sep-18 16:00N 34°20' W 119°37'612.3
2017-Sep-18 15:30N 34°23' W 119°30'0 0.1
2017-Sep-18 14:58N 34°23' W 119°30'4 8.6
2017-Sep-18 14:30N 34°20' W 119°34'2 4.2
2017-Sep-18 14:00N 34°20' W 119°36'611.3
2017-Sep-18 13:30N 34°23' W 119°30'0 0.7
2017-Sep-18 13:00N 34°23' W 119°31'0 0.8
2017-Sep-18 12:30N 34°22' W 119°31'3 6.6
2017-Sep-18 12:00N 34°20' W 119°34'0 0.0
2017-Sep-18 11:28N 34°20' W 119°34'0 0.0
2017-Sep-18 11:00N 34°20' W 119°34'0 0.0
2017-Sep-18 10:30N 34°20' W 119°34'0 0.0
2017-Sep-18 10:00N 34°20' W 119°34'0 0.0
2017-Sep-18 09:30N 34°20' W 119°34'0 0.0
2017-Sep-18 09:00N 34°20' W 119°34'0 0.0
2017-Sep-18 08:30N 34°20' W 119°34'0 0.0
2017-Sep-18 08:00N 34°20' W 119°34'0 0.0
2017-Sep-18 07:30N 34°20' W 119°34'0 0.0
2017-Sep-18 07:00N 34°20' W 119°34'0 0.0
2017-Sep-18 06:29N 34°20' W 119°34'0 0.0
2017-Sep-18 05:59N 34°20' W 119°34'0 0.0
2017-Sep-18 05:30N 34°20' W 119°34'0 0.0
2017-Sep-18 05:00N 34°20' W 119°34'0 0.0
2017-Sep-18 04:30N 34°20' W 119°34'0 0.0
2017-Sep-18 04:00N 34°20' W 119°34'0 0.0
2017-Sep-18 03:29N 34°20' W 119°34'0 0.0
2017-Sep-18 03:00N 34°20' W 119°34'0 0.0
2017-Sep-18 02:30N 34°20' W 119°34'2 4.7
2017-Sep-18 02:00N 34°20' W 119°37'5 9.2
2017-Sep-18 01:30N 34°22' W 119°31'1 2.8
2017-Sep-18 01:00N 34°23' W 119°31'1 1.3
2017-Sep-18 00:30N 34°22' W 119°30'0 0.0
2017-Sep-18 00:00N 34°22' W 119°30'0 0.0
2017-Sep-17 23:30N 34°23' W 119°30'0 0.0
2017-Sep-17 22:58N 34°22' W 119°30'510.3
2017-Sep-17 22:30N 34°20' W 119°35'1 2.2
2017-Sep-17 21:58N 34°20' W 119°36'0 0.0
2017-Sep-17 21:30N 34°20' W 119°36'2 3.4
2017-Sep-17 21:00N 34°20' W 119°34'0 0.7
2017-Sep-17 20:28N 34°20' W 119°34'0 0.0
2017-Sep-17 19:57N 34°20' W 119°34'4 8.3
2017-Sep-17 19:30N 34°23' W 119°31'0 0.2
2017-Sep-17 18:56N 34°23' W 119°30'0 0.7
2017-Sep-17 18:30N 34°23' W 119°31'510.2
2017-Sep-17 18:00N 34°20' W 119°36'2 3.0
2017-Sep-17 17:28N 34°20' W 119°38'0 1.0
2017-Sep-17 17:00N 34°20' W 119°37'0 0.5
2017-Sep-17 16:30N 34°20' W 119°38'5 8.8
2017-Sep-17 15:59N 34°21' W 119°32'2 4.7
2017-Sep-17 15:28N 34°22' W 119°30'2 4.8
2017-Sep-17 14:59N 34°20' W 119°29'1 2.5
2017-Sep-17 14:30N 34°20' W 119°31'4 8.0
2017-Sep-17 14:00N 34°20' W 119°36'510.3
2017-Sep-17 13:30N 34°23' W 119°30'0 0.6
2017-Sep-17 13:00N 34°23' W 119°31'1 1.5
2017-Sep-17 12:30N 34°22' W 119°30'0 0.0
2017-Sep-17 12:00N 34°22' W 119°30'0 0.0
2017-Sep-17 11:29N 34°22' W 119°30'0 0.0
2017-Sep-17 10:59N 34°22' W 119°30'0 0.0
2017-Sep-17 10:30N 34°22' W 119°30'0 0.0
2017-Sep-17 10:00N 34°22' W 119°30'0 0.0
2017-Sep-17 09:28N 34°22' W 119°30'0 0.0
2017-Sep-17 08:58N 34°22' W 119°30'0 0.0
2017-Sep-17 08:26N 34°22' W 119°30'0 0.0
2017-Sep-17 07:58N 34°22' W 119°30'0 0.0
2017-Sep-17 07:30N 34°22' W 119°30'0 0.0
2017-Sep-17 06:59N 34°22' W 119°30'0 0.0
2017-Sep-17 06:29N 34°22' W 119°30'0 0.0
2017-Sep-17 06:00N 34°22' W 119°30'0 0.0
2017-Sep-17 05:30N 34°22' W 119°30'0 0.0
2017-Sep-17 04:59N 34°22' W 119°30'0 0.0
2017-Sep-17 04:30N 34°22' W 119°30'0 0.0
2017-Sep-17 04:00N 34°22' W 119°30'0 0.0
2017-Sep-17 03:30N 34°22' W 119°30'0 0.0
2017-Sep-17 02:58N 34°22' W 119°30'0 0.0
2017-Sep-17 02:28N 34°22' W 119°30'0 0.0
2017-Sep-17 02:00N 34°22' W 119°30'0 0.0
2017-Sep-17 01:28N 34°22' W 119°30'0 0.0
2017-Sep-17 01:00N 34°22' W 119°30'3 7.1
2017-Sep-17 00:31N 34°20' W 119°33'2 4.4
2017-Sep-17 00:01N 34°20' W 119°36'2 3.3
2017-Sep-16 23:30N 34°20' W 119°38'0 0.6
2017-Sep-16 23:01N 34°20' W 119°38'4 8.0
2017-Sep-16 22:30N 34°24' W 119°39'2 4.1
2017-Sep-16 21:59N 34°24' W 119°42'0 0.0
2017-Sep-16 21:30N 34°24' W 119°42'0 0.0
2017-Sep-16 21:00N 34°24' W 119°42'0 0.0
2017-Sep-16 20:28N 34°24' W 119°42'0 0.0
2017-Sep-16 19:59N 34°24' W 119°42'0 0.0
2017-Sep-16 19:30N 34°24' W 119°42'2 4.4
2017-Sep-16 19:00N 34°24' W 119°39'714.1
2017-Sep-16 18:30N 34°23' W 119°30'5 9.5
2017-Sep-16 18:00N 34°20' W 119°35'2 3.2
2017-Sep-16 17:30N 34°20' W 119°37'1 1.3
2017-Sep-16 17:00N 34°20' W 119°36'1 2.2
2017-Sep-16 16:30N 34°20' W 119°38'4 7.8
2017-Sep-16 15:58N 34°21' W 119°33'2 4.1
2017-Sep-16 15:30N 34°22' W 119°31'611.5
2017-Sep-16 15:00N 34°20' W 119°38'1 1.2
2017-Sep-16 14:31N 34°20' W 119°37'0 0.1
2017-Sep-16 14:00N 34°20' W 119°37'610.5
2017-Sep-16 13:27N 34°23' W 119°31'0 0.2
2017-Sep-16 13:00N 34°23' W 119°31'1 1.0
2017-Sep-16 12:28N 34°22' W 119°30'0 0.0
2017-Sep-16 11:59N 34°22' W 119°30'0 0.0
2017-Sep-16 11:30N 34°22' W 119°30'0 0.0
2017-Sep-16 10:57N 34°22' W 119°30'0 0.0
2017-Sep-16 10:29N 34°22' W 119°30'0 0.0
2017-Sep-16 10:00N 34°22' W 119°30'0 0.0
2017-Sep-16 09:30N 34°22' W 119°30'0 0.0
2017-Sep-16 08:59N 34°22' W 119°30'0 0.0
2017-Sep-16 08:29N 34°22' W 119°30'0 0.0
2017-Sep-16 07:59N 34°22' W 119°30'0 0.0
2017-Sep-16 07:26N 34°22' W 119°30'0 0.0
2017-Sep-16 07:00N 34°22' W 119°30'0 0.0
2017-Sep-16 06:30N 34°22' W 119°30'0 0.0
2017-Sep-16 06:00N 34°22' W 119°30'0 0.0
2017-Sep-16 05:30N 34°22' W 119°30'0 0.0
2017-Sep-16 04:58N 34°22' W 119°30'0 0.0
2017-Sep-16 04:29N 34°22' W 119°30'0 0.0
2017-Sep-16 03:55N 34°22' W 119°30'0 0.0
2017-Sep-16 03:30N 34°22' W 119°30'0 0.0
2017-Sep-16 03:00N 34°22' W 119°30'0 0.0
2017-Sep-16 02:30N 34°22' W 119°30'0 0.0
2017-Sep-16 01:59N 34°22' W 119°30'0 0.0
2017-Sep-16 01:30N 34°22' W 119°30'1 1.4
2017-Sep-16 01:00N 34°23' W 119°30'713.9
2017-Sep-16 00:30N 34°20' W 119°38'3 7.0
2017-Sep-16 00:01N 34°20' W 119°34'2 4.2
2017-Sep-15 23:30N 34°21' W 119°32'2 4.0
2017-Sep-15 23:00N 34°23' W 119°30'4 7.8
2017-Sep-15 22:30N 34°20' W 119°34'2 4.3
2017-Sep-15 22:00N 34°19' W 119°36'2 3.8
2017-Sep-15 21:30N 34°17' W 119°35'1 1.1
2017-Sep-15 21:00N 34°18' W 119°35'612.2
2017-Sep-15 20:29N 34°23' W 119°30'4 8.4
2017-Sep-15 20:00N 34°20' W 119°34'3 7.0
2017-Sep-15 19:30N 34°20' W 119°38'1 2.8
2017-Sep-15 19:00N 34°20' W 119°36'0 0.0
2017-Sep-15 18:30N 34°20' W 119°36'1 2.8
2017-Sep-15 18:00N 34°20' W 119°38'1 1.1
2017-Sep-15 17:30N 34°20' W 119°37'0 0.5
2017-Sep-15 17:00N 34°20' W 119°38'1 1.1
2017-Sep-15 16:29N 34°20' W 119°37'510.3
2017-Sep-15 16:00N 34°22' W 119°31'1 2.3
2017-Sep-15 15:30N 34°23' W 119°30'0 0.0
2017-Sep-15 15:00N 34°23' W 119°30'612.3
2017-Sep-15 14:30N 34°18' W 119°35'2 4.2
2017-Sep-15 14:00N 34°20' W 119°36'611.3
2017-Sep-15 13:30N 34°23' W 119°30'0 0.6
2017-Sep-15 12:59N 34°23' W 119°31'1 1.0
2017-Sep-15 12:27N 34°22' W 119°30'0 0.0
2017-Sep-15 12:00N 34°22' W 119°30'0 0.0
2017-Sep-15 11:30N 34°22' W 119°30'0 0.0
2017-Sep-15 11:00N 34°22' W 119°30'0 0.0
2017-Sep-15 10:29N 34°22' W 119°30'0 0.0
2017-Sep-15 10:00N 34°22' W 119°30'0 0.0
2017-Sep-15 09:30N 34°22' W 119°30'0 0.0
2017-Sep-15 09:00N 34°22' W 119°30'0 0.0
2017-Sep-15 08:29N 34°22' W 119°30'0 0.0
2017-Sep-15 08:00N 34°22' W 119°30'0 0.0
2017-Sep-15 07:27N 34°22' W 119°30'0 0.0
2017-Sep-15 06:59N 34°22' W 119°30'0 0.0
2017-Sep-15 06:28N 34°22' W 119°30'0 0.0
2017-Sep-15 05:59N 34°22' W 119°30'0 0.0
2017-Sep-15 05:30N 34°22' W 119°30'0 0.0
2017-Sep-15 05:00N 34°22' W 119°30'0 0.0
2017-Sep-15 04:26N 34°22' W 119°30'0 0.0
2017-Sep-15 04:00N 34°22' W 119°30'0 0.0
2017-Sep-15 03:29N 34°22' W 119°30'0 0.0
2017-Sep-15 02:58N 34°22' W 119°30'2 3.4
2017-Sep-15 02:30N 34°21' W 119°31'510.5
2017-Sep-15 02:00N 34°20' W 119°37'612.0
2017-Sep-15 01:30N 34°23' W 119°31'1 1.0
2017-Sep-15 01:00N 34°23' W 119°31'511.1
2017-Sep-15 00:30N 34°20' W 119°36'1 1.8
2017-Sep-15 00:00N 34°20' W 119°37'612.8
2017-Sep-14 23:30N 34°23' W 119°30'0 0.0
2017-Sep-14 23:00N 34°23' W 119°30'4 8.3
2017-Sep-14 22:31N 34°20' W 119°34'2 3.4
2017-Sep-14 22:01N 34°20' W 119°36'2 3.2
2017-Sep-14 21:29N 34°20' W 119°34'0 0.2
2017-Sep-14 20:59N 34°20' W 119°34'0 0.0
2017-Sep-14 20:30N 34°20' W 119°34'0 0.0
2017-Sep-14 19:59N 34°20' W 119°34'0 0.0
2017-Sep-14 19:30N 34°20' W 119°34'1 2.0
2017-Sep-14 19:00N 34°20' W 119°35'3 5.7
2017-Sep-14 18:30N 34°17' W 119°35'3 6.2
2017-Sep-14 18:00N 34°20' W 119°37'0 1.0
2017-Sep-14 17:30N 34°20' W 119°37'0 0.5
2017-Sep-14 17:00N 34°20' W 119°37'2 4.8
2017-Sep-14 16:30N 34°20' W 119°34'2 4.2
2017-Sep-14 16:00N 34°21' W 119°32'1 2.6
2017-Sep-14 15:30N 34°22' W 119°31'1 2.1
2017-Sep-14 14:59N 34°23' W 119°30'715.0
2017-Sep-14 14:30N 34°17' W 119°35'3 5.8
2017-Sep-14 14:01N 34°20' W 119°36'611.0
2017-Sep-14 13:29N 34°23' W 119°30'0 1.0
2017-Sep-14 13:00N 34°23' W 119°31'1 1.2
2017-Sep-14 12:30N 34°22' W 119°30'0 0.0
2017-Sep-14 11:59N 34°22' W 119°30'0 0.0
2017-Sep-14 11:27N 34°22' W 119°30'0 0.0
2017-Sep-14 11:00N 34°22' W 119°30'0 0.0
2017-Sep-14 10:29N 34°22' W 119°30'0 0.0
2017-Sep-14 09:57N 34°22' W 119°30'0 0.0
2017-Sep-14 09:29N 34°22' W 119°30'0 0.0
2017-Sep-14 08:58N 34°22' W 119°30'0 0.0
2017-Sep-14 08:29N 34°22' W 119°30'0 0.0
2017-Sep-14 07:59N 34°22' W 119°30'0 0.0
2017-Sep-14 07:30N 34°22' W 119°30'0 0.0
2017-Sep-14 06:58N 34°22' W 119°30'0 0.0
2017-Sep-14 06:30N 34°22' W 119°30'0 0.0
2017-Sep-14 05:59N 34°22' W 119°30'0 0.0
2017-Sep-14 05:27N 34°22' W 119°30'0 0.0
2017-Sep-14 05:00N 34°22' W 119°30'0 0.0
2017-Sep-14 04:29N 34°22' W 119°30'0 0.0
2017-Sep-14 03:58N 34°22' W 119°30'511.6
2017-Sep-14 03:30N 34°20' W 119°36'510.5
2017-Sep-14 03:00N 34°23' W 119°30'1 1.1
2017-Sep-14 02:31N 34°23' W 119°31'611.9
2017-Sep-14 02:00N 34°20' W 119°37'611.9
2017-Sep-14 01:29N 34°23' W 119°31'0 0.9
2017-Sep-14 00:59N 34°23' W 119°30'0 0.5
2017-Sep-14 00:30N 34°22' W 119°30'0 0.0
2017-Sep-13 23:59N 34°22' W 119°30'0 0.0
2017-Sep-13 23:29N 34°22' W 119°30'0 0.0
2017-Sep-13 22:59N 34°22' W 119°30'4 8.2
2017-Sep-13 22:30N 34°20' W 119°34'2 4.1
2017-Sep-13 22:00N 34°20' W 119°36'0 0.2
2017-Sep-13 21:30N 34°20' W 119°36'0 0.5
2017-Sep-13 21:00N 34°20' W 119°37'1 2.8
2017-Sep-13 20:30N 34°20' W 119°35'611.9
2017-Sep-13 20:00N 34°24' W 119°40'1 2.2
2017-Sep-13 19:29N 34°24' W 119°42'0 0.0
2017-Sep-13 19:00N 34°24' W 119°42'0 0.0
2017-Sep-13 18:30N 34°24' W 119°42'511.0
2017-Sep-13 18:01N 34°21' W 119°36'2 4.5
2017-Sep-13 17:30N 34°20' W 119°34'2 3.9
2017-Sep-13 17:00N 34°20' W 119°36'1 2.6
2017-Sep-13 16:30N 34°20' W 119°38'0 0.3
2017-Sep-13 16:00N 34°20' W 119°38'5 9.3
2017-Sep-13 15:29N 34°21' W 119°32'2 4.6
2017-Sep-13 14:58N 34°23' W 119°31'2 4.3
2017-Sep-13 14:29N 34°21' W 119°32'4 8.4
2017-Sep-13 14:00N 34°20' W 119°37'611.8
2017-Sep-13 13:29N 34°23' W 119°30'0 0.0
2017-Sep-13 12:59N 34°23' W 119°30'1 1.5
2017-Sep-13 12:30N 34°22' W 119°30'0 0.0
2017-Sep-13 12:00N 34°22' W 119°30'0 0.0
2017-Sep-13 11:30N 34°22' W 119°30'0 0.0
2017-Sep-13 10:58N 34°22' W 119°30'0 0.0
2017-Sep-13 10:27N 34°22' W 119°30'0 0.0
2017-Sep-13 10:00N 34°22' W 119°30'0 0.0
2017-Sep-13 09:29N 34°22' W 119°30'0 0.0
2017-Sep-13 09:00N 34°22' W 119°30'0 0.0
2017-Sep-13 08:30N 34°22' W 119°30'0 0.0
2017-Sep-13 08:00N 34°22' W 119°30'0 0.0
2017-Sep-13 07:30N 34°22' W 119°30'0 0.0
2017-Sep-13 06:57N 34°22' W 119°30'0 0.0
2017-Sep-13 06:29N 34°22' W 119°30'0 0.0
2017-Sep-13 06:00N 34°22' W 119°30'0 0.0
2017-Sep-13 05:29N 34°22' W 119°30'0 0.0
2017-Sep-13 04:58N 34°22' W 119°30'0 0.0
2017-Sep-13 04:30N 34°22' W 119°30'0 0.0
2017-Sep-13 04:00N 34°22' W 119°30'0 0.0
2017-Sep-13 03:28N 34°22' W 119°30'0 0.0
2017-Sep-13 02:58N 34°22' W 119°30'0 0.0
2017-Sep-13 02:30N 34°22' W 119°30'0 0.0
2017-Sep-13 01:58N 34°22' W 119°30'4 8.4
2017-Sep-13 01:30N 34°20' W 119°34'4 7.4
2017-Sep-13 01:00N 34°23' W 119°31'0 0.8
2017-Sep-13 00:28N 34°23' W 119°30'0 0.0
2017-Sep-13 00:00N 34°23' W 119°30'0 0.0
2017-Sep-12 23:30N 34°23' W 119°30'1 1.1
2017-Sep-12 23:00N 34°23' W 119°30'4 8.4
2017-Sep-12 22:31N 34°20' W 119°34'2 4.0
2017-Sep-12 22:00N 34°20' W 119°36'1 1.8
2017-Sep-12 21:30N 34°20' W 119°37'0 0.3
2017-Sep-12 21:00N 34°20' W 119°37'1 1.9
2017-Sep-12 20:30N 34°20' W 119°36'510.4
2017-Sep-12 20:00N 34°22' W 119°31'510.0
2017-Sep-12 19:30N 34°18' W 119°34'2 5.0
2017-Sep-12 19:00N 34°19' W 119°37'1 1.5
2017-Sep-12 18:30N 34°20' W 119°37'0 0.8
2017-Sep-12 18:01N 34°20' W 119°37'0 0.7
2017-Sep-12 17:31N 34°20' W 119°37'1 1.7
2017-Sep-12 17:00N 34°20' W 119°36'0 0.0
2017-Sep-12 16:31N 34°20' W 119°36'3 5.0
2017-Sep-12 16:00N 34°20' W 119°33'4 7.0
2017-Sep-12 15:29N 34°23' W 119°30'0 0.0
2017-Sep-12 14:59N 34°23' W 119°30'4 7.8
2017-Sep-12 14:30N 34°20' W 119°33'3 5.6
2017-Sep-12 14:00N 34°20' W 119°37'611.8
2017-Sep-12 13:30N 34°23' W 119°30'0 0.4
2017-Sep-12 13:00N 34°23' W 119°31'1 1.4
2017-Sep-12 12:29N 34°22' W 119°30'0 0.0
2017-Sep-12 12:00N 34°22' W 119°30'0 0.0
2017-Sep-12 11:29N 34°22' W 119°30'0 0.0
2017-Sep-12 10:56N 34°22' W 119°30'0 0.0
2017-Sep-12 10:29N 34°22' W 119°30'0 0.0
2017-Sep-12 09:59N 34°22' W 119°30'0 0.0
2017-Sep-12 09:29N 34°22' W 119°30'0 0.0
2017-Sep-12 08:58N 34°22' W 119°30'0 0.0
2017-Sep-12 08:29N 34°22' W 119°30'0 0.0
2017-Sep-12 07:58N 34°22' W 119°30'0 0.0
2017-Sep-12 07:30N 34°22' W 119°30'0 0.0
2017-Sep-12 06:59N 34°22' W 119°30'0 0.0
2017-Sep-12 06:26N 34°22' W 119°30'0 0.0
2017-Sep-12 06:00N 34°22' W 119°30'0 0.0
2017-Sep-12 05:30N 34°22' W 119°30'0 0.0
2017-Sep-12 05:00N 34°22' W 119°30'0 0.0
2017-Sep-12 04:30N 34°22' W 119°30'0 0.0
2017-Sep-12 04:00N 34°22' W 119°30'0 0.0
2017-Sep-12 03:30N 34°22' W 119°30'0 0.0
2017-Sep-12 03:00N 34°22' W 119°30'0 0.0
2017-Sep-12 02:30N 34°22' W 119°30'0 0.0
2017-Sep-12 02:00N 34°22' W 119°30'2 3.3
2017-Sep-12 01:30N 34°21' W 119°32'1 1.8
2017-Sep-12 01:00N 34°21' W 119°32'2 5.1
2017-Sep-12 00:30N 34°23' W 119°30'0 0.0
2017-Sep-11 23:59N 34°23' W 119°30'0 0.0
2017-Sep-11 23:27N 34°23' W 119°30'0 0.0
2017-Sep-11 23:00N 34°23' W 119°30'  

Dump ship's entire track history